Terminal Aerodrome Forecast
Issued by NWS

Home | Current Version | Previous Version | Text Only | Print | Product List | Glossary On
Versions: 1 2 3 4 5 6 7 8 9 10 11 12 13 14 15 16 17 18 19 20 21 22 23 24
000
FTUS46 KOTX 232320
TAFMWH
TAF
KMWH 232320Z 2400/2424 24014G23KT P6SM FEW200
     FM240300 29017G23KT P6SM SKC
     FM240600 34012KT P6SM SKC
     FM242100 31008KT P6SM SKC=

USA.gov is the U.S. government's official web portal to all federal, state and local government web resources and services.